Time;durP1;ratioP1;P1;durP2;ratioP2;P2;SDS_P1;SDS_P2;PMS_P1;PMS_P2;Temp;Humidity;BMP_temperature;BMP_pressure;BME280_temperature;BME280_humidity;BME280_pressure;Samples;Min_cycle;Max_cycle;Signal;HPM_P1;HPM_P2
2022/06/21 00:01:18;;;;;;;11.45;3.70;;;;;;;;;;5070919;28;20453;-77
2022/06/21 00:03:45;;;;;;;12.68;3.75;;;;;;;;;;5079040;28;20517;-77
2022/06/21 00:06:15;;;;;;;12.60;3.50;;;;;;;;;;5080372;28;20441;-77
2022/06/21 00:08:42;;;;;;;10.88;3.60;;;;;;;;;;5096814;28;20417;-77
2022/06/21 00:11:15;;;;;;;11.95;3.83;;;;;;;;;;5070436;28;20430;-77
2022/06/21 00:13:41;;;;;;;10.50;4.32;;;;;;;;;;5084047;28;20423;-77
2022/06/21 00:16:11;;;;;;;13.68;3.80;;;;;;;;;;5085319;28;20449;-77
2022/06/21 00:18:38;;;;;;;7.13;3.35;;;;;;;;;;5083060;28;20438;-77
2022/06/21 00:21:06;;;;;;;9.60;3.53;;;;;;;;;;5083377;28;20437;-77
2022/06/21 00:23:33;;;;;;;9.10;3.83;;;;;;;;;;5087856;28;20487;-77
2022/06/21 00:25:59;;;;;;;7.68;3.65;;;;;;;;;;5068052;28;20657;-77
2022/06/21 00:28:25;;;;;;;11.77;4.30;;;;;;;;;;5065431;28;20755;-77
2022/06/21 00:30:52;;;;;;;10.07;3.97;;;;;;;;;;5084113;28;20505;-77
2022/06/21 00:33:22;;;;;;;8.85;4.15;;;;;;;;;;5083303;28;20424;-77
2022/06/21 00:35:49;;;;;;;10.23;4.28;;;;;;;;;;5084191;28;20495;-77
2022/06/21 00:38:17;;;;;;;12.75;4.20;;;;;;;;;;5079828;28;20423;-77
2022/06/21 00:40:43;;;;;;;10.85;4.47;;;;;;;;;;5073736;28;20419;-77
2022/06/21 00:43:18;;;;;;;11.90;4.20;;;;;;;;;;5082636;28;20410;-78
2022/06/21 00:45:46;;;;;;;8.88;4.20;;;;;;;;;;5083743;28;20419;-78
2022/06/21 00:48:37;;;;;;;11.45;4.32;;;11.80;99.90;;;;;;5085590;28;20890;-77
2022/06/21 00:51:22;;;;;;;8.43;4.27;;;;;;;;;;5056579;28;20431;-77
2022/06/21 05:15:32;;;;;;;11.30;8.40;;;11.90;99.90;;;;;;5123991;27;20725;-75
2022/06/21 05:18:03;;;;;;;13.15;8.13;;;12.00;99.90;;;;;;5126585;27;20494;-75
2022/06/21 05:20:32;;;;;;;12.35;7.55;;;;;;;;;;5124833;27;20459;-75
2022/06/21 05:23:01;;;;;;;16.73;7.87;;;12.20;99.90;;;;;;5111818;27;20417;-75
2022/06/21 05:25:47;;;;;;;10.85;7.60;;;;;;;;;;5129400;27;20393;-75
2022/06/21 05:28:16;;;;;;;10.40;7.33;;;;;;;;;;5122548;27;20417;-75
2022/06/21 05:30:42;;;;;;;12.57;7.05;;;;;;;;;;5128928;27;20909;-75
2022/06/21 05:33:13;;;;;;;10.80;6.85;;;;;;;;;;5145752;27;20406;-75
2022/06/21 05:35:39;;;;;;;14.27;7.35;;;;;;;;;;5129162;27;20429;-75
2022/06/21 05:38:25;;;;;;;11.50;7.05;;;;;;;;;;5144021;27;20509;-76
2022/06/21 05:40:51;;;;;;;9.25;6.30;;;;;;;;;;5127883;27;20420;-76
2022/06/21 05:43:24;;;;;;;13.07;6.85;;;12.90;99.90;;;;;;5123423;27;20454;-76
2022/06/21 05:45:53;;;;;;;14.30;7.40;;;;;;;;;;5121042;27;20420;-76
2022/06/21 05:48:24;;;;;;;12.15;7.18;;;;;;;;;;5104864;27;20897;-75
2022/06/21 05:50:51;;;;;;;11.45;7.10;;;;;;;;;;5107903;27;20486;-75
2022/06/21 05:53:38;;;;;;;11.73;7.10;;;;;;;;;;5145188;27;20896;-75
2022/06/21 05:56:07;;;;;;;10.20;7.20;;;;;;;;;;5124581;27;20391;-75
2022/06/21 05:58:36;;;;;;;12.93;7.47;;;;;;;;;;5108786;27;20418;-75
2022/06/21 06:01:22;;;;;;;11.55;7.40;;;13.40;99.90;;;;;;5125037;27;20735;-75
2022/06/21 06:04:07;;;;;;;17.27;7.78;;;;;;;;;;5111168;27;20425;-75
2022/06/21 06:06:36;;;;;;;12.75;7.18;;;;;;;;;;5146271;27;20453;-74
2022/06/21 06:09:04;;;;;;;9.60;6.90;;;;;;;;;;5142708;27;20449;-75
2022/06/21 06:14:20;;;;;;;12.53;6.90;;;;;;;;;;5125455;27;20776;-75
2022/06/21 06:16:48;;;;;;;9.27;6.40;;;;;;;;;;5143167;27;20410;-75
2022/06/21 06:19:21;;;;;;;12.68;6.75;;;;;;;;;;5142610;27;20765;-74
2022/06/21 06:22:05;;;;;;;8.82;6.13;;;;;;;;;;5142628;27;20422;-73
2022/06/21 06:24:35;;;;;;;8.45;5.70;;;;;;;;;;5144032;27;20758;-73
2022/06/21 06:27:03;;;;;;;9.35;5.82;;;;;;;;;;5108614;27;20773;-73
2022/06/21 06:29:34;;;;;;;10.85;5.95;;;;;;;;;;5129501;27;20410;-74
2022/06/21 06:32:24;;;;;;;10.50;5.50;;;;;;;;;;5132273;27;20442;-73
2022/06/21 06:34:52;;;;;;;11.07;5.40;;;;;;;;;;5118379;27;20937;-73
2022/06/21 06:37:22;;;;;;;11.77;6.50;;;;;;;;;;5104860;27;20934;-73
2022/06/21 06:39:48;;;;;;;13.20;6.43;;;;;;;;;;5128924;27;20755;-73
2022/06/21 06:42:19;;;;;;;12.15;4.22;;;;;;;;;;5126936;27;20414;-73
2022/06/21 06:44:50;;;;;;;8.18;2.88;;;;;;;;;;5100959;27;20418;-74
2022/06/21 06:47:18;;;;;;;8.15;2.63;;;;;;;;;;5103216;27;20422;-74
2022/06/21 06:49:47;;;;;;;9.82;2.83;;;;;;;;;;5112542;27;20770;-74
2022/06/21 06:52:35;;;;;;;8.80;4.63;;;15.40;99.90;;;;;;5085157;27;20769;-74
2022/06/21 06:55:11;;;;;;;9.93;4.53;;;;;;;;;;5095146;27;20418;-74
2022/06/21 06:57:50;;;;;;;9.73;5.27;;;16.10;99.90;;;;;;5111612;27;20502;-74
2022/06/21 07:00:18;;;;;;;10.23;5.05;;;;;;;;;;5099875;27;20405;-74
2022/06/21 07:02:50;;;;;;;10.15;4.68;;;16.10;99.90;;;;;;5096330;27;20415;-74
2022/06/21 07:05:19;;;;;;;8.75;5.47;;;;;;;;;;5095808;27;20446;-74
2022/06/21 07:07:53;;;;;;;10.30;5.97;;;15.90;99.90;;;;;;5093098;27;20470;-74
2022/06/21 07:10:24;;;;;;;9.63;5.60;;;16.10;99.90;;;;;;5097337;27;20418;-74
2022/06/21 07:12:52;;;;;;;9.15;4.72;;;15.90;99.90;;;;;;5095738;27;20414;-74
2022/06/21 07:15:19;;;;;;;10.73;5.30;;;;;;;;;;5108472;27;20422;-74
2022/06/21 07:17:56;;;;;;;8.18;4.93;;;16.00;99.90;;;;;;5126262;27;20414;-74
2022/06/21 07:20:25;;;;;;;10.25;5.55;;;16.50;99.90;;;;;;5112409;27;20464;-74
2022/06/21 07:22:55;;;;;;;8.48;5.22;;;16.60;99.90;;;;;;5104559;27;20427;-74
2022/06/21 07:25:40;;;;;;;10.13;5.50;;;16.70;99.90;;;;;;5095968;27;20425;-74
2022/06/21 07:28:09;;;;;;;9.48;4.50;;;;;;;;;;5101373;27;20433;-74
2022/06/21 07:30:40;;;;;;;9.97;4.87;;;16.90;99.90;;;;;;5090176;27;20518;-75
2022/06/21 07:33:13;;;;;;;10.07;5.32;;;;;;;;;;5104575;27;20770;-75
2022/06/21 07:35:52;;;;;;;8.45;5.30;;;16.60;99.90;;;;;;5109808;27;20426;-75
2022/06/21 07:38:43;;;;;;;8.95;5.13;;;16.30;99.90;;;;;;5110111;27;20413;-75
2022/06/21 07:41:21;;;;;;;7.97;5.18;;;16.60;99.90;;;;;;5095346;27;20454;-75
2022/06/21 07:43:52;;;;;;;10.05;5.13;;;16.30;99.90;;;;;;5085834;27;20909;-74
2022/06/21 07:46:30;;;;;;;8.63;4.80;;;16.50;99.90;;;;;;5108780;27;20465;-75
2022/06/21 07:49:00;;;;;;;8.13;4.82;;;;;;;;;;5091564;27;20415;-74
2022/06/21 07:51:28;;;;;;;8.68;4.70;;;16.40;99.90;;;;;;5121741;27;20426;-74
2022/06/21 07:54:04;;;;;;;11.63;5.82;;;16.70;99.90;;;;;;5097355;27;20427;-74
2022/06/21 07:56:38;;;;;;;9.30;5.72;;;16.70;99.90;;;;;;5092379;27;20458;-74
2022/06/21 07:59:15;;;;;;;7.40;4.43;;;17.00;99.90;;;;;;5105348;27;20446;-74
2022/06/21 08:07:44;;;;;;;6.47;3.70;;;17.70;99.90;;;;;;5110096;27;20888;-75
2022/06/21 08:10:25;;;;;;;7.70;4.10;;;18.00;99.90;;;;;;5088789;27;20726;-73
2022/06/21 08:12:51;;;;;;;9.82;4.13;;;18.10;99.90;;;;;;5109087;27;20454;-74
2022/06/21 08:15:17;;;;;;;8.68;3.88;;;18.30;99.90;;;;;;5112109;27;20407;-73
2022/06/21 08:18:17;;;;;;;9.45;3.95;;;18.40;99.90;;;;;;5091088;27;20458;-74
2022/06/21 08:20:57;;;;;;;8.32;3.90;;;18.50;99.90;;;;;;5078428;27;20420;-74
2022/06/21 08:23:39;;;;;;;5.88;3.55;;;18.90;99.90;;;;;;5108586;27;20509;-73
2022/06/21 08:26:21;;;;;;;8.15;3.35;;;18.70;99.90;;;;;;5104022;27;20466;-73
2022/06/21 08:29:34;;;;;;;5.82;2.65;;;18.80;99.90;;;;;;5110024;27;20623;-74
2022/06/21 08:32:32;;;;;;;5.47;2.67;;;18.60;99.90;;;;;;5041248;28;20434;-74
2022/06/21 08:35:06;;;;;;;6.67;3.30;;;18.80;99.90;;;;;;5029942;28;20424;-73
2022/06/21 08:37:40;;;;;;;8.85;3.20;;;18.60;99.90;;;;;;5076635;27;20416;-73
2022/06/21 08:40:24;;;;;;;5.47;3.15;;;19.00;99.90;;;;;;5085704;27;20412;-73
2022/06/21 08:43:09;;;;;;;6.32;2.78;;;18.70;99.90;;;;;;5101160;27;20450;-74
2022/06/21 08:45:40;;;;;;;7.68;2.47;;;18.80;99.90;;;;;;5088693;27;20449;-74
2022/06/21 08:48:44;;;;;;;6.30;2.85;;;19.10;99.90;;;;;;5092075;27;20410;-74
2022/06/21 08:51:15;;;;;;;8.63;3.13;;;19.30;99.90;;;;;;5084923;27;20427;-73
2022/06/21 08:54:15;;;;;;;5.47;2.53;;;19.10;99.90;;;;;;5110663;27;20447;-74
2022/06/21 08:56:58;;;;;;;5.95;2.40;;;19.10;99.90;;;;;;5105836;27;20403;-74
2022/06/21 09:00:00;;;;;;;5.53;2.20;;;19.00;99.90;;;;;;5102209;27;20469;-74
2022/06/21 09:03:04;;;;;;;6.22;2.60;;;18.70;99.90;;;;;;5075150;28;20416;-75
2022/06/21 09:05:50;;;;;;;7.75;2.58;;;19.00;99.90;;;;;;5063870;27;20415;-74
2022/06/21 09:08:42;;;;;;;6.75;2.13;;;19.10;99.90;;;;;;5117725;27;20419;-74
2022/06/21 09:11:38;;;;;;;5.95;2.45;;;19.50;99.90;;;;;;5103962;27;20410;-74
2022/06/21 09:14:30;;;;;;;7.20;2.20;;;19.50;99.90;;;;;;5104074;28;20433;-74
2022/06/21 09:17:20;;;;;;;4.35;2.30;;;20.00;99.90;;;;;;5105720;27;22097;-74
2022/06/21 09:20:13;;;;;;;5.68;2.25;;;20.10;99.90;;;;;;5084702;27;20414;-74
2022/06/21 09:22:51;;;;;;;4.70;2.25;;;20.60;99.90;;;;;;5093897;27;20775;-74
2022/06/21 09:25:40;;;;;;;5.65;2.05;;;20.60;99.90;;;;;;5100467;28;20459;-75
2022/06/21 09:28:37;;;;;;;4.25;1.90;;;20.40;99.90;;;;;;5083211;27;21505;-74
2022/06/21 09:31:25;;;;;;;4.88;1.83;;;20.10;99.90;;;;;;5084146;27;20419;-75
2022/06/21 09:34:06;;;;;;;5.80;2.22;;;20.30;99.90;;;;;;5106644;28;20426;-74
2022/06/21 09:36:36;;;;;;;5.03;2.45;;;19.90;99.90;;;;;;5109770;28;20493;-74
2022/06/21 09:39:18;;;;;;;5.43;2.30;;;19.90;99.90;;;;;;5090213;28;20479;-74
2022/06/21 09:41:49;;;;;;;5.25;2.42;;;20.20;99.90;;;;;;5081480;27;20419;-74
2022/06/21 09:44:21;;;;;;;4.80;2.20;;;20.50;99.90;;;;;;5092677;28;20429;-74
2022/06/21 09:47:09;;;;;;;4.80;1.80;;;20.20;99.90;;;;;;5094273;28;20418;-74
2022/06/21 09:49:51;;;;;;;5.10;1.67;;;21.10;99.90;;;;;;5085154;28;20425;-73
2022/06/21 09:52:38;;;;;;;6.45;1.75;;;21.80;99.90;;;;;;5106298;28;20427;-74
2022/06/21 09:55:31;;;;;;;4.03;1.53;;;21.50;99.90;;;;;;5090743;27;20432;-74
2022/06/21 09:58:05;;;;;;;4.43;1.50;;;21.50;99.90;;;;;;5070556;28;20418;-73
2022/06/21 10:00:45;;;;;;;3.30;1.27;;;21.80;99.90;;;;;;5087168;27;20424;-74
2022/06/21 10:03:38;;;;;;;4.40;1.60;;;21.50;99.90;;;;;;5093934;27;20468;-74
2022/06/21 10:06:22;;;;;;;5.72;1.40;;;21.50;99.90;;;;;;5095771;27;20481;-74
2022/06/21 10:09:23;;;;;;;5.57;1.60;;;21.80;99.90;;;;;;5110846;27;20792;-74
2022/06/21 10:12:05;;;;;;;5.35;2.10;;;22.40;99.90;;;;;;5065371;27;20426;-74
2022/06/21 10:14:43;;;;;;;4.40;1.70;;;22.30;99.90;;;;;;5128991;27;20426;-74
2022/06/21 10:17:34;;;;;;;5.03;1.80;;;22.10;99.90;;;;;;5113255;27;20419;-74
2022/06/21 10:20:18;;;;;;;5.38;2.08;;;21.60;99.90;;;;;;5065301;27;20442;-74
2022/06/21 10:23:05;;;;;;;3.95;1.60;;;21.60;99.90;;;;;;5102788;27;20440;-73
2022/06/21 10:25:50;;;;;;;3.70;1.70;;;21.80;99.90;;;;;;5102113;27;20438;-73
2022/06/21 10:28:44;;;;;;;4.78;1.48;;;21.70;99.90;;;;;;5093576;27;20823;-74
2022/06/21 10:31:19;;;;;;;6.93;1.58;;;21.40;99.90;;;;;;5087125;27;20984;-74
2022/06/21 10:33:56;;;;;;;3.10;1.50;;;21.70;99.90;;;;;;5110628;27;20519;-74
2022/06/21 10:36:38;;;;;;;4.05;1.67;;;21.30;99.90;;;;;;5095013;27;20456;-74
2022/06/21 10:39:19;;;;;;;4.70;1.67;;;21.50;99.90;;;;;;5090606;27;20398;-74
2022/06/21 10:45:22;;;;;;;5.55;1.80;;;21.80;99.90;;;;;;5104949;27;20417;-74
2022/06/21 10:48:13;;;;;;;4.07;1.73;;;21.90;99.90;;;;;;5110454;27;20421;-74
2022/06/21 10:50:38;;;;;;;5.78;1.85;;;22.30;99.90;;;;;;5093299;27;20925;-74
2022/06/21 10:53:45;;;;;;;5.43;1.73;;;22.10;99.90;;;;;;5089739;27;20422;-74
2022/06/21 10:59:26;;;;;;;3.85;1.30;;;22.10;99.90;;;;;;5110334;27;20501;-73
2022/06/21 11:01:58;;;;;;;4.32;1.85;;;21.90;99.90;;;;;;5102137;27;20410;-73
2022/06/21 11:04:42;;;;;;;3.30;1.42;;;21.50;99.90;;;;;;5112188;27;20410;-74
2022/06/21 11:07:38;;;;;;;4.90;1.40;;;21.70;99.90;;;;;;5110833;27;20423;-74
2022/06/21 11:10:24;;;;;;;4.15;1.42;;;21.90;99.90;;;;;;5070350;27;20462;-75
2022/06/21 11:12:53;;;;;;;5.05;1.45;;;22.50;99.90;;;;;;5118579;27;20425;-76
2022/06/21 11:15:28;;;;;;;4.40;1.50;;;22.40;99.90;;;;;;5124663;27;20538;-75
2022/06/21 11:18:40;;;;;;;2.67;1.40;;;22.50;99.90;;;;;;5106485;27;20849;-73
2022/06/21 11:21:28;;;;;;;4.65;1.50;;;22.50;99.90;;;;;;5029671;28;20423;-74
2022/06/21 11:23:59;;;;;;;2.83;1.50;;;22.00;99.90;;;;;;5011966;28;20434;-76
2022/06/21 11:26:59;;;;;;;3.83;1.70;;;22.40;99.90;;;;;;5072285;27;20433;-73
2022/06/21 11:29:36;;;;;;;2.80;1.40;;;22.40;99.90;;;;;;5111447;27;20419;-74
2022/06/21 11:32:12;;;;;;;4.57;1.60;;;22.30;99.90;;;;;;5089222;27;20426;-74
2022/06/21 11:34:51;;;;;;;4.97;1.90;;;22.60;99.90;;;;;;5113425;27;20945;-73
2022/06/21 11:37:16;;;;;;;3.58;1.60;;;22.30;99.90;;;;;;5112314;27;20415;-74
2022/06/21 11:39:52;;;;;;;3.58;1.70;;;22.70;99.90;;;;;;5097412;27;20395;-73
2022/06/21 11:42:53;;;;;;;3.33;1.60;;;22.70;99.90;;;;;;5097987;27;20398;-73
2022/06/21 11:45:44;;;;;;;3.97;1.65;;;22.00;99.90;;;;;;5052539;28;20421;-73
2022/06/21 11:48:26;;;;;;;4.90;1.77;;;21.90;99.90;;;;;;5107831;27;20450;-74
2022/06/21 11:51:10;;;;;;;5.38;1.88;;;22.90;99.90;;;;;;5090498;27;20422;-73
2022/06/21 11:54:13;;;;;;;4.60;1.90;;;23.70;99.90;;;;;;5109279;27;20424;-73
2022/06/21 11:57:08;;;;;;;3.60;1.60;;;23.50;99.90;;;;;;5109608;27;20471;-73
2022/06/21 11:59:56;;;;;;;4.77;1.63;;;24.20;99.90;;;;;;5090028;27;20431;-73
2022/06/21 12:02:34;;;;;;;5.17;1.70;;;23.60;99.90;;;;;;5086632;27;20943;-73
2022/06/21 12:05:40;;;;;;;4.47;1.40;;;23.80;99.90;;;;;;5109866;27;20433;-74
2022/06/21 12:08:27;;;;;;;3.15;1.75;;;24.30;99.90;;;;;;5091694;27;20429;-73
2022/06/21 12:11:21;;;;;;;3.22;1.40;;;23.30;99.90;;;;;;5106003;27;20410;-73
2022/06/21 12:14:09;;;;;;;4.03;1.40;;;23.90;99.90;;;;;;5104687;27;20471;-73
2022/06/21 12:16:49;;;;;;;4.53;1.67;;;24.40;99.90;;;;;;5106723;27;20425;-72
2022/06/21 12:19:20;;;;;;;4.57;1.63;;;23.80;99.90;;;;;;5105770;27;20414;-73
2022/06/21 12:22:09;;;;;;;5.68;1.83;;;24.00;99.90;;;;;;5110920;27;20770;-73
2022/06/21 12:24:35;;;;;;;4.30;1.88;;;24.40;99.90;;;;;;5105543;27;20415;-73
2022/06/21 12:27:01;;;;;;;5.22;1.80;;;24.10;99.90;;;;;;5096604;27;20949;-73
2022/06/21 12:29:28;;;;;;;3.30;1.67;;;24.50;99.90;;;;;;5107532;27;20471;-73
2022/06/21 12:32:00;;;;;;;4.53;1.50;;;24.80;99.90;;;;;;5130596;27;20417;-73
2022/06/21 12:34:40;;;;;;;4.50;1.50;;;25.00;99.90;;;;;;5105842;27;22186;-73
2022/06/21 12:37:09;;;;;;;3.85;1.60;;;25.10;99.90;;;;;;5130896;27;20507;-73
2022/06/21 12:39:55;;;;;;;3.80;1.50;;;24.70;99.90;;;;;;5128098;27;20414;-73
2022/06/21 12:42:40;;;;;;;4.30;1.67;;;25.50;99.90;;;;;;5111014;27;20464;-72
2022/06/21 12:45:33;;;;;;;5.63;1.83;;;25.20;99.90;;;;;;5102228;27;20515;-72
2022/06/21 12:48:17;;;;;;;3.08;1.40;;;24.70;99.90;;;;;;5110630;27;20414;-72
2022/06/21 12:51:11;;;;;;;3.50;1.50;;;25.00;99.60;;;;;;5102664;27;20936;-73
2022/06/21 12:53:58;;;;;;;3.05;1.40;;;25.00;99.40;;;;;;5107394;27;20419;-74
2022/06/21 12:56:50;;;;;;;4.25;1.73;;;25.20;99.90;;;;;;5092207;27;20422;-73
2022/06/21 12:59:39;;;;;;;4.22;1.50;;;25.00;99.80;;;;;;5069744;27;20446;-73
2022/06/21 13:02:53;;;;;;;4.72;1.83;;;24.90;99.90;;;;;;5092663;27;20414;-73
2022/06/21 13:05:45;;;;;;;4.28;1.63;;;25.00;99.80;;;;;;5088916;27;20494;-72
2022/06/21 13:08:47;;;;;;;5.25;1.75;;;25.10;99.30;;;;;;5092873;27;20442;-73
2022/06/21 13:11:22;;;;;;;3.77;1.60;;;25.30;99.50;;;;;;5087597;28;20417;-73
2022/06/21 13:14:09;;;;;;;6.15;1.83;;;25.30;99.20;;;;;;5105974;27;20433;-72
2022/06/21 13:16:44;;;;;;;4.32;1.60;;;25.20;99.00;;;;;;5107579;27;20437;-73
2022/06/21 13:19:44;;;;;;;3.42;1.77;;;25.40;99.60;;;;;;5122571;27;20414;-74
2022/06/21 13:22:48;;;;;;;4.05;1.60;;;25.70;99.40;;;;;;5093153;28;20383;-73
2022/06/21 13:25:23;;;;;;;4.82;1.77;;;25.70;99.00;;;;;;5103414;27;20410;-73
2022/06/21 13:28:16;;;;;;;3.40;1.60;;;25.80;99.30;;;;;;5107976;27;20933;-73
2022/06/21 13:31:09;;;;;;;3.80;1.58;;;26.00;98.70;;;;;;5080717;28;20427;-72
2022/06/21 13:33:35;;;;;;;4.73;1.60;;;26.10;98.90;;;;;;5124859;27;20426;-73
2022/06/21 13:36:13;;;;;;;4.47;1.80;;;25.80;99.30;;;;;;5093830;27;20474;-73
2022/06/21 13:38:49;;;;;;;3.80;1.52;;;26.10;99.10;;;;;;5133454;27;20403;-72
2022/06/21 13:44:29;;;;;;;3.78;1.83;;;26.00;98.40;;;;;;5113256;27;20410;-73
2022/06/21 13:47:23;;;;;;;4.35;1.40;;;25.90;98.90;;;;;;5114487;27;20551;-73
2022/06/21 13:49:58;;;;;;;2.55;1.40;;;25.60;98.40;;;;;;5115303;27;20398;-73
2022/06/21 13:52:53;;;;;;;4.85;1.67;;;25.80;99.20;;;;;;5099359;27;20418;-73
2022/06/21 13:55:41;;;;;;;4.25;1.60;;;25.80;98.50;;;;;;5116821;27;20434;-73
2022/06/21 13:58:35;;;;;;;5.73;1.70;;;25.70;98.10;;;;;;5111812;27;20418;-73
2022/06/21 14:01:20;;;;;;;3.35;1.70;;;25.20;98.50;;;;;;5132386;27;20487;-74
2022/06/21 14:04:07;;;;;;;3.40;1.55;;;24.70;98.70;;;;;;5123482;27;20459;-73
2022/06/21 14:06:35;;;;;;;3.88;1.50;;;25.10;99.30;;;;;;5130001;27;20439;-74
2022/06/21 14:09:13;;;;;;;4.60;1.63;;;24.90;99.20;;;;;;5107362;27;20420;-74
2022/06/21 14:11:54;;;;;;;5.50;1.65;;;24.90;99.10;;;;;;5116235;27;20426;-71
2022/06/21 14:14:45;;;;;;;4.68;1.67;;;24.80;99.00;;;;;;5114029;27;20435;-71
2022/06/21 14:17:40;;;;;;;3.80;1.40;;;24.80;99.10;;;;;;5113155;27;20812;-72
2022/06/21 14:20:30;;;;;;;3.83;1.63;;;24.60;99.40;;;;;;5115640;27;20407;-73
2022/06/21 14:23:09;;;;;;;3.15;1.48;;;24.60;98.90;;;;;;5116138;27;20463;-73
2022/06/21 14:25:48;;;;;;;5.82;1.73;;;24.60;99.40;;;;;;5108689;27;20420;-72
2022/06/21 14:28:26;;;;;;;3.50;1.33;;;25.00;98.70;;;;;;5096263;27;20422;-73
2022/06/21 14:31:17;;;;;;;3.47;1.50;;;25.50;98.70;;;;;;5087418;27;20485;-73
2022/06/21 14:33:51;;;;;;;3.38;1.60;;;25.20;97.80;;;;;;5110060;28;20970;-73
2022/06/21 14:36:39;;;;;;;4.53;1.50;;;26.10;97.60;;;;;;5097896;27;20405;-72
2022/06/21 14:39:29;;;;;;;4.07;1.77;;;25.70;97.80;;;;;;5110531;27;20773;-73
2022/06/21 14:41:58;;;;;;;3.60;1.50;;;25.40;97.60;;;;;;5095860;28;20443;-73
2022/06/21 14:44:37;;;;;;;3.67;1.58;;;25.50;98.20;;;;;;5109298;27;20545;-73
2022/06/21 14:47:27;;;;;;;3.40;1.52;;;26.10;97.40;;;;;;5130858;27;20411;-74
2022/06/21 14:50:04;;;;;;;3.58;1.73;;;26.40;96.80;;;;;;5114942;27;20395;-74
2022/06/21 14:52:57;;;;;;;3.23;1.80;;;26.80;96.60;;;;;;5113651;27;20431;-73
2022/06/21 14:55:39;;;;;;;4.78;1.48;;;26.50;95.70;;;;;;5107834;27;20457;-74
2022/06/21 14:58:29;;;;;;;4.53;1.63;;;26.90;95.70;;;;;;5110680;27;20414;-74
2022/06/21 15:01:01;;;;;;;5.55;1.92;;;26.60;96.50;;;;;;5127715;27;20419;-73
2022/06/21 15:03:37;;;;;;;5.40;2.08;;;26.60;97.10;;;;;;5115278;27;20407;-75
2022/06/21 15:06:21;;;;;;;6.05;2.15;;;26.20;98.10;;;;;;5115555;27;20924;-75
2022/06/21 15:08:53;;;;;;;4.07;2.20;;;25.60;97.20;;;;;;5101466;27;20463;-74
2022/06/21 15:11:52;;;;;;;5.32;2.30;;;25.30;98.00;;;;;;5107929;27;20520;-75
2022/06/21 15:14:15;;;;;;;3.70;2.10;;;25.30;99.00;;;;;;5111226;27;20972;-74
2022/06/21 15:17:19;;;;;;;5.97;2.30;;;25.20;99.10;;;;;;5108668;27;20410;-75
2022/06/21 15:19:54;;;;;;;5.03;2.20;;;25.70;98.10;;;;;;5110769;27;20758;-75
2022/06/21 15:22:27;;;;;;;5.20;1.95;;;26.20;97.50;;;;;;5114276;27;20416;-75
2022/06/21 15:25:34;;;;;;;4.90;2.10;;;26.60;97.90;;;;;;5089924;27;20923;-75
2022/06/21 15:28:06;;;;;;;7.18;2.53;;;27.20;97.30;;;;;;5096891;27;20424;-75
2022/06/21 15:31:04;;;;;;;8.20;3.00;;;27.10;98.90;;;;;;5091450;27;20842;-75
2022/06/21 15:33:51;;;;;;;7.35;3.30;;;26.90;99.90;;;;;;5076318;27;20414;-75
2022/06/21 15:36:17;;;;;;;7.60;3.72;;;26.70;99.90;;;;;;5095787;27;20463;-75
2022/06/21 15:38:54;;;;;;;8.67;3.67;;;26.80;99.90;;;;;;5113384;27;21028;-75
2022/06/21 15:42:01;;;;;;;6.20;3.58;;;26.90;99.90;;;;;;5107179;27;20917;-74
2022/06/21 15:44:48;;;;;;;8.63;3.90;;;26.70;99.90;;;;;;5094374;27;20472;-74
2022/06/21 15:50:53;;;;;;;6.23;3.43;;;26.80;99.90;;;;;;5105602;27;20428;-75
2022/06/21 15:53:38;;;;;;;9.18;3.58;;;27.20;99.90;;;;;;5094643;27;20467;-76
2022/06/21 15:56:13;;;;;;;8.45;3.72;;;27.10;99.90;;;;;;5105779;28;20428;-76
2022/06/21 15:58:51;;;;;;;10.63;3.72;;;26.80;99.90;;;;;;5099538;27;20413;-75
2022/06/21 16:01:24;;;;;;;8.27;3.45;;;27.10;99.90;;;;;;5105327;27;20443;-75
2022/06/21 16:04:15;;;;;;;6.60;3.00;;;27.40;99.90;;;;;;5097854;27;20487;-76
2022/06/21 16:06:47;;;;;;;8.23;3.47;;;27.00;99.90;;;;;;5129872;27;20403;-75
2022/06/21 16:09:18;;;;;;;8.32;3.58;;;26.70;99.90;;;;;;5081970;28;20416;-75
2022/06/21 16:12:02;;;;;;;11.27;3.50;;;26.40;99.90;;;;;;5108411;27;20418;-75
2022/06/21 16:14:44;;;;;;;8.80;3.47;;;26.40;99.90;;;;;;5108079;27;20953;-75
2022/06/21 16:17:14;;;;;;;7.63;3.35;;;26.00;99.90;;;;;;5111530;27;20419;-75
2022/06/21 16:19:52;;;;;;;7.25;3.40;;;26.00;99.90;;;;;;5111454;27;20467;-75
2022/06/21 16:22:20;;;;;;;9.15;3.97;;;26.00;99.90;;;;;;5093247;27;20835;-75
2022/06/21 16:24:49;;;;;;;8.80;3.70;;;25.80;99.90;;;;;;5083664;27;20974;-76
2022/06/21 16:27:53;;;;;;;7.20;3.40;;;23.70;99.90;;;;;;5132007;27;20394;-76
2022/06/21 16:30:24;;;;;;;9.32;3.20;;;25.70;99.90;;;;;;5060674;27;20422;-74
2022/06/21 16:33:24;;;;;;;7.97;3.60;;;26.30;99.90;;;;;;5110107;27;20417;-74
2022/06/21 16:36:05;;;;;;;7.40;3.50;;;26.30;99.90;;;;;;5090447;27;20406;-73
2022/06/21 16:38:39;;;;;;;6.60;3.60;;;26.40;99.90;;;;;;5107628;28;20396;-74
2022/06/21 16:44:21;;;;;;;12.38;4.00;;;27.00;99.90;;;;;;5106421;27;20937;-74
2022/06/21 16:46:57;;;;;;;7.13;3.47;;;27.20;99.90;;;;;;5108686;27;20475;-75
2022/06/21 16:49:41;;;;;;;9.02;3.58;;;27.40;99.90;;;;;;5110517;27;20420;-75
2022/06/21 16:52:27;;;;;;;9.32;3.40;;;27.60;99.90;;;;;;5108622;27;20889;-75
2022/06/21 16:55:00;;;;;;;9.40;3.70;;;27.60;99.90;;;;;;5130693;27;20803;-75
2022/06/21 16:57:30;;;;;;;8.48;3.33;;;27.50;99.90;;;;;;5087351;28;20412;-75
2022/06/21 16:59:55;;;;;;;7.85;3.60;;;27.40;99.90;;;;;;5105226;27;20405;-75
2022/06/21 17:02:25;;;;;;;8.05;3.30;;;27.10;99.90;;;;;;5084878;27;20410;-75
2022/06/21 17:05:14;;;;;;;6.68;3.30;;;27.00;99.90;;;;;;5107675;28;20411;-75
2022/06/21 17:07:51;;;;;;;7.20;3.42;;;26.30;99.90;;;;;;5108918;27;20774;-75
2022/06/21 17:13:26;;;;;;;7.05;3.60;;;25.60;99.90;;;;;;5106522;28;20428;-75
2022/06/21 17:15:56;;;;;;;7.73;3.60;;;25.50;99.90;;;;;;5111302;27;20414;-75
2022/06/21 17:18:25;;;;;;;7.22;3.30;;;25.60;99.90;;;;;;5107477;28;20817;-74
2022/06/21 17:21:22;;;;;;;8.23;3.70;;;25.50;99.90;;;;;;5110275;28;20910;-74
2022/06/21 17:24:06;;;;;;;10.40;3.70;;;24.90;99.90;;;;;;5111232;28;20422;-74
2022/06/21 17:26:57;;;;;;;8.48;3.60;;;24.10;99.90;;;;;;5084153;28;20505;-75
2022/06/21 17:29:35;;;;;;;6.97;3.50;;;24.30;99.90;;;;;;5112212;28;20940;-75
2022/06/21 17:32:02;;;;;;;10.73;3.90;;;24.60;99.90;;;;;;5096368;28;20398;-75
2022/06/21 17:34:35;;;;;;;6.57;3.50;;;25.20;99.90;;;;;;5094449;28;20421;-75
2022/06/21 17:37:36;;;;;;;8.05;3.50;;;25.70;99.90;;;;;;5111802;28;20921;-75
2022/06/21 17:40:16;;;;;;;7.93;3.75;;;26.00;99.90;;;;;;5113122;27;20741;-74
2022/06/21 17:43:10;;;;;;;6.67;3.33;;;26.00;99.90;;;;;;5129440;27;20489;-75
2022/06/21 17:45:44;;;;;;;7.68;3.30;;;26.20;99.90;;;;;;5101478;27;20407;-75
2022/06/21 17:48:40;;;;;;;6.55;3.63;;;26.10;99.90;;;;;;5090318;28;20422;-74
2022/06/21 17:51:09;;;;;;;6.85;3.28;;;26.00;99.90;;;;;;5107651;28;20505;-75
2022/06/21 17:53:48;;;;;;;7.63;3.20;;;25.90;99.90;;;;;;5109855;28;20419;-76
2022/06/21 17:56:20;;;;;;;7.17;3.70;;;25.80;99.90;;;;;;5111247;28;20418;-76
2022/06/21 17:58:50;;;;;;;8.77;4.13;;;25.90;99.90;;;;;;5109878;28;20415;-76
2022/06/21 18:01:26;;;;;;;7.32;3.40;;;26.10;99.90;;;;;;5094681;28;20421;-75
2022/06/21 18:04:07;;;;;;;8.13;3.70;;;26.20;99.90;;;;;;5118640;28;20399;-75
2022/06/21 18:07:09;;;;;;;7.35;3.75;;;26.70;99.90;;;;;;5108257;28;20395;-76
2022/06/21 18:09:53;;;;;;;9.65;3.83;;;26.70;99.90;;;;;;5108424;28;20445;-75
2022/06/21 18:12:41;;;;;;;7.23;3.70;;;26.50;99.90;;;;;;5088900;28;21240;-75
2022/06/21 18:15:07;;;;;;;7.65;3.70;;;26.40;99.90;;;;;;5093611;27;20508;-75
2022/06/21 18:18:00;;;;;;;8.40;3.63;;;26.40;99.90;;;;;;5094328;28;20471;-75
2022/06/21 18:21:02;;;;;;;8.73;4.17;;;26.40;99.90;;;;;;5108651;27;20410;-75
2022/06/21 18:23:34;;;;;;;9.77;3.67;;;26.30;99.90;;;;;;5104926;27;20456;-75
2022/06/21 18:26:26;;;;;;;7.10;3.33;;;25.70;99.90;;;;;;5109166;27;20398;-75
2022/06/21 18:29:24;;;;;;;8.65;3.60;;;25.90;99.90;;;;;;5112271;27;20410;-75
2022/06/21 18:32:14;;;;;;;8.70;3.45;;;25.60;99.90;;;;;;5115073;27;20489;-75
2022/06/21 18:34:40;;;;;;;8.48;3.70;;;25.20;99.90;;;;;;5113435;27;20475;-75
2022/06/21 18:37:12;;;;;;;8.17;4.00;;;25.20;99.90;;;;;;5089604;27;20463;-75
2022/06/21 18:40:06;;;;;;;8.15;3.90;;;25.00;99.90;;;;;;5091004;27;20893;-75
2022/06/21 18:42:54;;;;;;;7.78;3.88;;;24.90;99.90;;;;;;5106180;27;20499;-76
2022/06/21 18:45:41;;;;;;;8.73;4.28;;;24.80;99.90;;;;;;5107272;27;20450;-76
2022/06/21 18:48:45;;;;;;;7.10;3.90;;;24.40;99.90;;;;;;5096370;27;20410;-76
2022/06/21 18:51:19;;;;;;;9.33;3.83;;;24.20;99.90;;;;;;5112588;27;20490;-76
2022/06/21 18:54:10;;;;;;;9.57;4.20;;;24.10;99.90;;;;;;5097460;27;20464;-75
2022/06/21 18:57:11;;;;;;;10.05;4.45;;;23.60;99.90;;;;;;5091626;27;20446;-76
2022/06/21 18:59:56;;;;;;;8.93;3.70;;;23.60;99.90;;;;;;5004474;28;20439;-75
2022/06/21 19:02:33;;;;;;;7.43;4.28;;;23.40;99.90;;;;;;5105069;27;20428;-76
2022/06/21 19:08:29;;;;;;;9.48;4.45;;;23.60;99.90;;;;;;5110686;27;21211;-76